createdAt,value
2023-03-02T00:00:22.013Z,100.00
2023-03-02T00:03:10.215Z,100.00
2023-03-02T00:05:57.480Z,100.00
2023-03-02T00:08:44.244Z,100.00
2023-03-02T00:11:32.666Z,100.00
2023-03-02T00:14:19.220Z,100.00
2023-03-02T00:17:07.806Z,100.00
2023-03-02T00:19:55.433Z,100.00
2023-03-02T00:22:44.086Z,100.00
2023-03-02T00:25:30.698Z,100.00
2023-03-02T00:28:16.918Z,100.00
2023-03-02T00:31:06.707Z,100.00
2023-03-02T00:33:56.654Z,100.00
2023-03-02T00:36:43.580Z,100.00
2023-03-02T00:39:30.494Z,100.00
2023-03-02T00:42:17.068Z,100.00
2023-03-02T00:45:05.102Z,100.00
2023-03-02T00:47:51.460Z,100.00
2023-03-02T00:50:40.916Z,100.00
2023-03-02T00:53:27.149Z,100.00
2023-03-02T00:56:13.866Z,100.00
2023-03-02T00:59:27.481Z,100.00
2023-03-02T01:02:39.396Z,100.00
2023-03-02T01:05:26.104Z,100.00
2023-03-02T01:08:12.502Z,100.00
2023-03-02T01:11:01.262Z,100.00
2023-03-02T01:13:50.205Z,100.00
2023-03-02T01:16:37.471Z,100.00
2023-03-02T01:19:24.447Z,100.00
2023-03-02T01:22:10.901Z,100.00
2023-03-02T01:24:58.782Z,100.00
2023-03-02T01:27:46.223Z,100.00
2023-03-02T01:30:32.557Z,100.00
2023-03-02T01:33:19.030Z,100.00
2023-03-02T01:36:05.669Z,100.00
2023-03-02T01:38:54.093Z,100.00
2023-03-02T01:46:19.879Z,100.00
2023-03-02T01:49:15.297Z,100.00
2023-03-02T01:52:12.157Z,100.00
2023-03-02T01:55:02.112Z,100.00
2023-03-02T01:57:51.959Z,100.00
2023-03-02T02:00:39.669Z,100.00
2023-03-02T02:03:28.681Z,100.00
2023-03-02T02:06:28.132Z,100.00
2023-03-02T02:09:17.358Z,100.00
2023-03-02T02:12:05.804Z,100.00
2023-03-02T02:14:53.981Z,100.00
2023-03-02T02:17:40.422Z,100.00
2023-03-02T02:20:39.935Z,100.00
2023-03-02T02:23:44.535Z,100.00
2023-03-02T02:26:37.061Z,100.00
2023-03-02T02:29:32.885Z,100.00
2023-03-02T02:32:26.600Z,100.00
2023-03-02T02:35:24.404Z,100.00
2023-03-02T02:38:15.954Z,100.00
2023-03-02T02:41:06.367Z,100.00
2023-03-02T02:43:55.774Z,100.00
2023-03-02T02:46:42.083Z,100.00
2023-03-02T02:49:35.886Z,100.00
2023-03-02T02:52:26.391Z,100.00
2023-03-02T02:55:19.956Z,100.00
2023-03-02T02:58:39.627Z,100.00
2023-03-02T03:01:26.717Z,100.00
2023-03-02T03:04:20.341Z,100.00
2023-03-02T03:07:06.696Z,100.00
2023-03-02T03:10:05.219Z,100.00
2023-03-02T03:12:51.581Z,100.00
2023-03-02T03:15:39.914Z,100.00
2023-03-02T03:18:27.731Z,100.00
2023-03-02T03:21:14.792Z,100.00
2023-03-02T03:24:01.452Z,100.00
2023-03-02T03:26:48.768Z,100.00
2023-03-02T03:29:38.047Z,100.00
2023-03-02T03:32:26.888Z,100.00
2023-03-02T03:35:15.320Z,100.00
2023-03-02T03:38:02.049Z,100.00
2023-03-02T03:40:48.605Z,100.00
2023-03-02T03:43:35.274Z,100.00
2023-03-02T03:46:22.591Z,100.00
2023-03-02T03:49:08.787Z,100.00
2023-03-02T03:51:56.120Z,100.00
2023-03-02T03:54:44.175Z,100.00
2023-03-02T03:57:30.726Z,100.00
2023-03-02T04:00:18.133Z,100.00
2023-03-02T04:03:15.135Z,100.00
2023-03-02T04:06:01.487Z,100.00
2023-03-02T04:08:47.976Z,100.00
2023-03-02T04:11:38.113Z,100.00
2023-03-02T04:14:25.237Z,100.00
2023-03-02T04:17:12.957Z,100.00
2023-03-02T04:20:07.696Z,100.00
2023-03-02T04:22:56.664Z,100.00
2023-03-02T04:25:44.297Z,100.00
2023-03-02T04:28:35.228Z,100.00
2023-03-02T04:31:21.917Z,100.00
2023-03-02T04:34:09.189Z,100.00
2023-03-02T04:36:58.019Z,100.00
2023-03-02T04:39:47.215Z,100.00
2023-03-02T04:42:33.435Z,100.00
2023-03-02T04:45:19.742Z,100.00
2023-03-02T04:48:07.207Z,100.00
2023-03-02T04:50:53.839Z,100.00
2023-03-02T04:53:39.882Z,100.00
2023-03-02T04:56:26.858Z,100.00
2023-03-02T04:59:13.253Z,100.00
2023-03-02T05:02:00.900Z,100.00
2023-03-02T05:04:47.442Z,100.00
2023-03-02T05:07:33.716Z,100.00
2023-03-02T05:10:21.952Z,100.00
2023-03-02T05:13:08.553Z,100.00
2023-03-02T05:15:57.410Z,100.00
2023-03-02T05:18:44.144Z,100.00
2023-03-02T05:21:30.574Z,100.00
2023-03-02T05:24:17.073Z,100.00
2023-03-02T05:27:03.144Z,100.00
2023-03-02T05:29:49.471Z,100.00
2023-03-02T05:32:35.858Z,100.00
2023-03-02T05:35:22.993Z,100.00
2023-03-02T05:38:09.865Z,100.00
2023-03-02T05:40:56.024Z,100.00
2023-03-02T05:43:42.256Z,100.00
2023-03-02T05:46:28.745Z,100.00
2023-03-02T05:49:14.998Z,100.00
2023-03-02T05:52:01.163Z,100.00
2023-03-02T05:54:47.712Z,100.00
2023-03-02T05:57:34.596Z,100.00
2023-03-02T06:00:21.844Z,100.00
2023-03-02T06:03:08.187Z,100.00
2023-03-02T06:05:54.695Z,100.00
2023-03-02T06:08:42.444Z,100.00
2023-03-02T06:11:30.216Z,100.00
2023-03-02T06:14:16.439Z,100.00
2023-03-02T06:17:02.930Z,100.00
2023-03-02T06:19:49.130Z,100.00
2023-03-02T06:22:35.261Z,100.00
2023-03-02T06:25:23.931Z,100.00
2023-03-02T06:28:10.578Z,100.00
2023-03-02T06:30:56.832Z,100.00
2023-03-02T06:33:43.351Z,100.00
2023-03-02T06:36:29.501Z,100.00
2023-03-02T06:39:16.037Z,100.00
2023-03-02T06:42:02.308Z,100.00
2023-03-02T06:44:48.719Z,100.00
2023-03-02T06:47:35.224Z,100.00
2023-03-02T06:50:21.938Z,100.00
2023-03-02T06:53:08.646Z,100.00
2023-03-02T06:55:55.149Z,100.00
2023-03-02T06:58:41.442Z,100.00
2023-03-02T07:01:32.895Z,100.00
2023-03-02T07:04:19.645Z,100.00
2023-03-02T07:07:05.821Z,100.00
2023-03-02T07:09:52.028Z,100.00
2023-03-02T07:12:38.994Z,100.00
2023-03-02T07:15:25.524Z,100.00
2023-03-02T07:18:12.497Z,100.00
2023-03-02T07:20:58.843Z,100.00
2023-03-02T07:23:45.635Z,100.00
2023-03-02T07:26:32.481Z,100.00
2023-03-02T07:29:19.240Z,100.00
2023-03-02T07:32:06.922Z,100.00
2023-03-02T07:34:53.645Z,100.00
2023-03-02T07:37:40.711Z,100.00
2023-03-02T07:40:27.215Z,100.00
2023-03-02T07:43:13.744Z,100.00
2023-03-02T07:46:00.491Z,100.00
2023-03-02T07:48:46.811Z,100.00
2023-03-02T07:51:33.821Z,100.00
2023-03-02T07:54:20.323Z,100.00
2023-03-02T07:57:06.655Z,100.00
2023-03-02T07:59:53.326Z,100.00
2023-03-02T08:02:41.173Z,100.00
2023-03-02T08:05:27.422Z,100.00
2023-03-02T08:08:13.699Z,100.00
2023-03-02T08:11:15.399Z,100.00
2023-03-02T08:14:02.952Z,100.00
2023-03-02T08:16:50.052Z,100.00
2023-03-02T08:19:36.776Z,100.00
2023-03-02T08:22:23.228Z,100.00
2023-03-02T08:25:09.793Z,100.00
2023-03-02T08:27:56.852Z,100.00
2023-03-02T08:30:43.533Z,100.00
2023-03-02T08:33:30.844Z,100.00
2023-03-02T08:36:19.063Z,100.00
2023-03-02T08:39:05.587Z,100.00
2023-03-02T08:41:53.366Z,100.00
2023-03-02T08:44:39.714Z,100.00
2023-03-02T08:47:26.674Z,100.00
2023-03-02T08:50:13.233Z,100.00
2023-03-02T08:52:59.860Z,100.00
2023-03-02T08:55:46.260Z,100.00
2023-03-02T08:58:33.232Z,100.00
2023-03-02T09:01:23.104Z,100.00
2023-03-02T09:04:11.283Z,100.00
2023-03-02T09:06:57.908Z,100.00
2023-03-02T09:09:44.591Z,98.93
2023-03-02T09:12:31.427Z,100.00
2023-03-02T09:15:17.874Z,99.24
2023-03-02T09:18:04.471Z,97.25
2023-03-02T09:20:52.730Z,97.89
2023-03-02T09:23:39.249Z,96.77
2023-03-02T09:26:26.936Z,95.97
2023-03-02T09:29:13.434Z,96.71
2023-03-02T09:31:59.947Z,94.32
2023-03-02T09:34:46.587Z,92.85
2023-03-02T09:37:35.164Z,89.54
2023-03-02T09:40:25.161Z,88.84
2023-03-02T09:43:52.409Z,90.51
2023-03-02T09:46:54.459Z,89.13
2023-03-02T09:49:59.462Z,86.60
2023-03-02T09:53:23.419Z,85.72
2023-03-02T09:56:17.226Z,85.50
2023-03-02T09:59:15.766Z,85.68
2023-03-02T10:02:27.812Z,87.30
2023-03-02T10:05:22.876Z,86.38
2023-03-02T10:08:22.776Z,82.09
2023-03-02T10:11:30.758Z,81.09
2023-03-02T10:14:35.437Z,80.25
2023-03-02T10:17:34.128Z,81.61
2023-03-02T10:20:36.703Z,80.43
2023-03-02T10:23:49.286Z,80.63
2023-03-02T10:26:39.906Z,78.55
2023-03-02T10:29:40.513Z,76.84
2023-03-02T10:32:32.961Z,76.74
2023-03-02T10:35:23.001Z,76.01
2023-03-02T10:38:16.407Z,74.46
2023-03-02T10:41:06.506Z,77.74
2023-03-02T10:43:59.201Z,76.62
2023-03-02T10:46:46.684Z,77.90
2023-03-02T10:49:41.689Z,77.94
2023-03-02T10:52:29.159Z,74.56
2023-03-02T10:55:16.335Z,75.10
2023-03-02T10:58:05.439Z,73.30
2023-03-02T11:00:59.803Z,75.88
2023-03-02T11:03:57.554Z,75.55
2023-03-02T11:06:43.868Z,74.08
2023-03-02T11:09:30.126Z,73.11
2023-03-02T11:12:17.812Z,72.51
2023-03-02T11:15:45.824Z,73.26
2023-03-02T11:18:48.860Z,70.66
2023-03-02T11:21:47.032Z,72.52
2023-03-02T11:24:45.870Z,72.31
2023-03-02T11:27:36.556Z,71.13
2023-03-02T11:30:26.998Z,70.72
2023-03-02T11:33:34.783Z,72.51
2023-03-02T11:36:30.369Z,70.83
2023-03-02T11:39:23.241Z,69.89
2023-03-02T11:42:20.604Z,70.31
2023-03-02T11:45:13.682Z,69.75
2023-03-02T11:48:17.640Z,68.18
2023-03-02T11:51:10.742Z,69.00
2023-03-02T11:54:04.876Z,68.33
2023-03-02T11:56:51.392Z,68.86
2023-03-02T11:59:38.646Z,68.39
2023-03-02T12:02:26.406Z,67.17
2023-03-02T12:05:26.068Z,66.99
2023-03-02T12:08:18.729Z,67.02
2023-03-02T12:11:07.706Z,66.43
2023-03-02T12:13:54.167Z,67.42
2023-03-02T12:16:45.949Z,68.87
2023-03-02T12:19:41.114Z,66.60
2023-03-02T12:22:30.225Z,65.74
2023-03-02T12:25:19.336Z,64.56
2023-03-02T12:28:05.913Z,68.79
2023-03-02T12:31:04.697Z,65.35
2023-03-02T12:33:53.052Z,63.82
2023-03-02T12:36:43.706Z,63.36
2023-03-02T12:39:51.690Z,64.17
2023-03-02T12:42:49.592Z,63.42
2023-03-02T12:45:48.196Z,62.34
2023-03-02T12:48:43.924Z,64.99
2023-03-02T12:51:43.296Z,61.55
2023-03-02T12:54:34.725Z,61.57
2023-03-02T12:57:21.207Z,59.08
2023-03-02T13:00:17.660Z,60.07
2023-03-02T13:03:07.036Z,58.71
2023-03-02T13:06:15.692Z,59.39
2023-03-02T13:09:02.157Z,59.89
2023-03-02T13:11:52.047Z,60.67
2023-03-02T13:14:41.465Z,58.74
2023-03-02T13:17:32.869Z,57.82
2023-03-02T13:20:20.972Z,59.70
2023-03-02T13:23:07.313Z,59.25
2023-03-02T13:25:59.545Z,58.40
2023-03-02T13:28:46.056Z,57.68
2023-03-02T13:31:33.910Z,57.99
2023-03-02T13:34:30.921Z,57.16
2023-03-02T13:37:29.436Z,55.64
2023-03-02T13:40:22.052Z,56.51
2023-03-02T13:43:34.978Z,58.10
2023-03-02T13:46:22.170Z,57.29
2023-03-02T13:49:11.861Z,57.70
2023-03-02T13:52:08.223Z,58.08
2023-03-02T13:54:55.092Z,57.21
2023-03-02T13:57:42.112Z,57.58
2023-03-02T14:00:34.045Z,56.15
2023-03-02T14:03:26.890Z,55.82
2023-03-02T14:06:13.535Z,56.52
2023-03-02T14:08:59.906Z,56.14
2023-03-02T14:11:52.979Z,55.77
2023-03-02T14:14:40.572Z,56.15
2023-03-02T14:17:27.464Z,55.73
2023-03-02T14:20:15.855Z,57.08
2023-03-02T14:23:06.874Z,58.47
2023-03-02T14:25:55.032Z,58.81
2023-03-02T14:28:41.189Z,57.67
2023-03-02T14:31:27.894Z,57.66
2023-03-02T14:34:16.285Z,57.82
2023-03-02T14:37:15.472Z,57.15
2023-03-02T14:40:01.974Z,58.68
2023-03-02T14:42:48.612Z,58.23
2023-03-02T14:45:34.795Z,58.58
2023-03-02T14:48:21.444Z,58.08
2023-03-02T14:51:21.280Z,57.15
2023-03-02T14:54:12.078Z,58.49
2023-03-02T14:56:58.696Z,58.10
2023-03-02T14:59:44.921Z,58.11
2023-03-02T15:02:31.172Z,58.12
2023-03-02T15:05:18.740Z,60.10
2023-03-02T15:08:05.006Z,59.46
2023-03-02T15:10:51.482Z,58.48
2023-03-02T15:13:37.728Z,59.45
2023-03-02T15:16:24.086Z,59.40
2023-03-02T15:19:10.709Z,60.43
2023-03-02T15:21:57.347Z,60.03
2023-03-02T15:24:43.699Z,59.90
2023-03-02T15:27:30.114Z,59.75
2023-03-02T15:30:17.626Z,59.58
2023-03-02T15:33:04.457Z,60.30
2023-03-02T15:35:55.277Z,60.08
2023-03-02T15:38:42.048Z,60.31
2023-03-02T15:41:28.855Z,60.78
2023-03-02T15:44:23.948Z,61.83
2023-03-02T15:47:11.427Z,61.30
2023-03-02T15:49:57.901Z,61.50
2023-03-02T15:52:44.422Z,61.71
2023-03-02T15:55:30.915Z,61.57
2023-03-02T15:58:18.575Z,61.80
2023-03-02T16:01:09.776Z,62.32
2023-03-02T16:03:59.486Z,62.61
2023-03-02T16:06:46.087Z,62.93
2023-03-02T16:09:32.361Z,63.55
2023-03-02T16:12:20.814Z,63.17
2023-03-02T16:15:08.290Z,63.72
2023-03-02T16:17:54.968Z,63.80
2023-03-02T16:20:41.355Z,64.35
2023-03-02T16:23:27.672Z,64.42
2023-03-02T16:26:17.338Z,65.28
2023-03-02T16:29:07.881Z,65.43
2023-03-02T16:31:54.112Z,65.93
2023-03-02T16:34:40.590Z,66.14
2023-03-02T16:37:27.163Z,66.19
2023-03-02T16:40:13.633Z,67.28
2023-03-02T16:42:59.961Z,67.76
2023-03-02T16:45:46.420Z,68.28
2023-03-02T16:48:32.915Z,68.50
2023-03-02T16:51:20.154Z,69.26
2023-03-02T16:54:07.461Z,68.94
2023-03-02T16:56:54.007Z,69.04
2023-03-02T16:59:40.973Z,69.33
2023-03-02T17:02:29.190Z,69.42
2023-03-02T17:05:19.183Z,69.72
2023-03-02T17:08:06.287Z,70.53
2023-03-02T17:10:52.870Z,71.13
2023-03-02T17:13:39.194Z,72.16
2023-03-02T17:16:25.278Z,72.11
2023-03-02T17:19:11.441Z,73.56
2023-03-02T17:21:59.118Z,74.09
2023-03-02T17:24:45.558Z,74.75
2023-03-02T17:27:32.075Z,75.31
2023-03-02T17:30:18.936Z,76.18
2023-03-02T17:33:05.344Z,75.61
2023-03-02T17:35:52.094Z,75.84
2023-03-02T17:38:39.496Z,76.99
2023-03-02T17:41:26.163Z,76.44
2023-03-02T17:44:13.341Z,75.64
2023-03-02T17:46:59.500Z,75.24
2023-03-02T17:49:46.336Z,75.22
2023-03-02T17:52:32.821Z,75.05
2023-03-02T17:55:19.473Z,75.05
2023-03-02T17:58:05.898Z,75.20
2023-03-02T18:00:53.935Z,75.18
2023-03-02T18:03:40.488Z,74.89
2023-03-02T18:06:27.573Z,74.81
2023-03-02T18:09:13.751Z,74.52
2023-03-02T18:12:01.053Z,75.05
2023-03-02T18:14:47.439Z,76.01
2023-03-02T18:17:33.626Z,75.43
2023-03-02T18:20:19.920Z,75.46
2023-03-02T18:23:06.181Z,76.38
2023-03-02T18:25:52.298Z,76.46
2023-03-02T18:28:38.868Z,76.61
2023-03-02T18:31:25.231Z,76.79
2023-03-02T18:34:11.597Z,77.33
2023-03-02T18:36:58.047Z,77.67
2023-03-02T18:39:44.799Z,78.62
2023-03-02T18:42:31.305Z,79.23
2023-03-02T18:45:25.777Z,79.96
2023-03-02T18:48:12.335Z,79.89
2023-03-02T18:50:59.057Z,80.59
2023-03-02T18:53:46.268Z,80.63
2023-03-02T18:56:32.534Z,80.42
2023-03-02T18:59:19.170Z,81.97
2023-03-02T19:02:09.851Z,80.39
2023-03-02T19:04:56.521Z,80.49
2023-03-02T19:07:43.198Z,80.00
2023-03-02T19:10:29.452Z,80.83
2023-03-02T19:13:15.816Z,80.93
2023-03-02T19:16:03.057Z,80.84
2023-03-02T19:18:50.041Z,80.92
2023-03-02T19:21:36.609Z,81.30
2023-03-02T19:24:22.782Z,81.92
2023-03-02T19:27:11.527Z,82.84
2023-03-02T19:29:58.185Z,84.04
2023-03-02T19:32:44.542Z,84.88
2023-03-02T19:35:30.773Z,85.58
2023-03-02T19:38:18.245Z,86.08
2023-03-02T19:41:05.049Z,86.43
2023-03-02T19:43:51.470Z,87.58
2023-03-02T19:46:37.871Z,88.09
2023-03-02T19:49:24.375Z,88.83
2023-03-02T19:52:10.632Z,89.56
2023-03-02T19:54:57.033Z,90.21
2023-03-02T19:57:43.420Z,91.85
2023-03-02T20:00:32.383Z,92.96
2023-03-02T20:03:18.590Z,94.63
2023-03-02T20:06:05.183Z,95.64
2023-03-02T20:08:51.985Z,96.31
2023-03-02T20:11:38.416Z,97.70
2023-03-02T20:14:33.841Z,97.52
2023-03-02T20:17:21.134Z,97.56
2023-03-02T20:20:07.749Z,98.03
2023-03-02T20:22:54.324Z,98.60
2023-03-02T20:25:41.232Z,98.73
2023-03-02T20:28:28.197Z,99.05
2023-03-02T20:31:15.592Z,100.00
2023-03-02T20:34:05.275Z,100.00
2023-03-02T20:36:51.799Z,100.00
2023-03-02T20:39:40.784Z,100.00
2023-03-02T20:42:27.484Z,100.00
2023-03-02T20:45:14.150Z,100.00
2023-03-02T20:48:01.924Z,100.00
2023-03-02T20:50:48.933Z,100.00
2023-03-02T20:53:35.421Z,100.00
2023-03-02T20:56:22.800Z,100.00
2023-03-02T20:59:10.620Z,100.00
2023-03-02T21:01:57.158Z,100.00
2023-03-02T21:04:43.779Z,100.00
2023-03-02T21:07:30.705Z,100.00
2023-03-02T21:10:21.808Z,100.00
2023-03-02T21:13:09.374Z,100.00
2023-03-02T21:15:56.458Z,100.00
2023-03-02T21:18:42.944Z,100.00
2023-03-02T21:21:40.643Z,100.00
2023-03-02T21:24:28.132Z,100.00
2023-03-02T21:27:14.521Z,100.00
2023-03-02T21:30:03.216Z,100.00
2023-03-02T21:32:50.196Z,100.00
2023-03-02T21:35:36.870Z,100.00
2023-03-02T21:38:23.542Z,100.00
2023-03-02T21:41:10.394Z,100.00
2023-03-02T21:43:57.728Z,100.00
2023-03-02T21:46:44.250Z,100.00
2023-03-02T21:49:31.868Z,100.00
2023-03-02T21:52:17.960Z,100.00
2023-03-02T21:55:04.502Z,100.00
2023-03-02T21:57:50.656Z,100.00
2023-03-02T22:00:38.775Z,100.00
2023-03-02T22:03:25.016Z,100.00
2023-03-02T22:06:24.103Z,100.00
2023-03-02T22:09:11.525Z,100.00
2023-03-02T22:11:58.039Z,100.00
2023-03-02T22:14:44.292Z,100.00
2023-03-02T22:17:30.446Z,100.00
2023-03-02T22:20:18.880Z,100.00
2023-03-02T22:23:12.059Z,100.00
2023-03-02T22:26:12.799Z,100.00
2023-03-02T22:29:12.814Z,100.00
2023-03-02T22:32:12.825Z,100.00
2023-03-02T22:35:01.885Z,100.00
2023-03-02T22:37:48.637Z,100.00
2023-03-02T22:40:35.631Z,100.00
2023-03-02T22:43:29.742Z,100.00
2023-03-02T22:46:21.720Z,100.00
2023-03-02T22:49:17.702Z,100.00
2023-03-02T22:52:13.333Z,100.00
2023-03-02T22:54:59.536Z,100.00
2023-03-02T22:57:45.798Z,100.00
2023-03-02T23:00:40.455Z,100.00
2023-03-02T23:03:44.146Z,100.00
2023-03-02T23:06:33.151Z,100.00
2023-03-02T23:09:25.690Z,100.00
2023-03-02T23:12:22.655Z,100.00
2023-03-02T23:15:19.178Z,100.00
2023-03-02T23:18:21.215Z,100.00
2023-03-02T23:21:16.504Z,100.00
2023-03-02T23:24:03.088Z,100.00
2023-03-02T23:26:51.289Z,100.00
2023-03-02T23:29:37.763Z,100.00
2023-03-02T23:32:24.530Z,100.00
2023-03-02T23:35:10.910Z,100.00
2023-03-02T23:37:57.976Z,100.00
2023-03-02T23:40:44.518Z,100.00
2023-03-02T23:43:31.068Z,100.00
2023-03-02T23:46:17.505Z,100.00
2023-03-02T23:49:04.160Z,100.00
2023-03-02T23:51:50.575Z,100.00
2023-03-02T23:54:36.791Z,100.00
2023-03-02T23:57:23.059Z,100.00
